Terminal Aerodrome Forecast
Issued by NWS

Home | Current Version | Previous Version | Text Only | Print | Product List | Glossary On
Versions: 1 2 3 4 5 6 7 8 9 10 11 12 13 14
200
FTUS45 KVEF 231122
TAFHND
TAF
KHND 231122Z 2312/2412 20010KT P6SM FEW250
     FM232000 22012G18KT P6SM SCT250
     FM240300 23009KT P6SM SKC=

USA.gov is the U.S. government's official web portal to all federal, state and local government web resources and services.